sensor_id;sensor_type;location;lat;lon;timestamp;P1;durP1;ratioP1;P2;durP2;ratioP2
20336;SDS011;10326;53.660;10.200;2022-10-16T00:01:35;5.38;;;4.88;;
20336;SDS011;10326;53.660;10.200;2022-10-16T00:04:03;5.03;;;4.57;;
20336;SDS011;10326;53.660;10.200;2022-10-16T00:06:30;6.45;;;4.72;;
20336;SDS011;10326;53.660;10.200;2022-10-16T00:08:58;5.45;;;4.95;;
20336;SDS011;10326;53.660;10.200;2022-10-16T00:11:26;5.43;;;4.93;;
20336;SDS011;10326;53.660;10.200;2022-10-16T00:13:59;5.05;;;4.65;;
20336;SDS011;10326;53.660;10.200;2022-10-16T00:16:28;5.57;;;5.03;;
20336;SDS011;10326;53.660;10.200;2022-10-16T00:18:56;6.82;;;5.35;;
20336;SDS011;10326;53.660;10.200;2022-10-16T00:21:25;5.43;;;4.93;;
20336;SDS011;10326;53.660;10.200;2022-10-16T00:23:55;5.20;;;4.70;;
20336;SDS011;10326;53.660;10.200;2022-10-16T00:26:26;4.75;;;4.32;;
20336;SDS011;10326;53.660;10.200;2022-10-16T00:28:55;5.05;;;4.30;;
20336;SDS011;10326;53.660;10.200;2022-10-16T00:31:22;4.75;;;4.18;;
20336;SDS011;10326;53.660;10.200;2022-10-16T00:33:51;3.85;;;3.55;;
20336;SDS011;10326;53.660;10.200;2022-10-16T00:36:19;4.70;;;4.30;;
20336;SDS011;10326;53.660;10.200;2022-10-16T00:38:50;4.25;;;3.90;;
20336;SDS011;10326;53.660;10.200;2022-10-16T00:41:19;4.60;;;4.20;;
20336;SDS011;10326;53.660;10.200;2022-10-16T00:43:49;4.28;;;3.88;;
20336;SDS011;10326;53.660;10.200;2022-10-16T00:46:19;4.47;;;4.18;;
20336;SDS011;10326;53.660;10.200;2022-10-16T00:48:50;4.78;;;3.67;;
20336;SDS011;10326;53.660;10.200;2022-10-16T00:51:23;4.35;;;3.88;;
20336;SDS011;10326;53.660;10.200;2022-10-16T00:53:59;5.57;;;3.38;;
20336;SDS011;10326;53.660;10.200;2022-10-16T00:56:29;4.38;;;3.63;;
20336;SDS011;10326;53.660;10.200;2022-10-16T00:58:56;3.88;;;3.45;;
20336;SDS011;10326;53.660;10.200;2022-10-16T01:01:25;4.43;;;3.70;;
20336;SDS011;10326;53.660;10.200;2022-10-16T01:03:54;4.13;;;3.72;;
20336;SDS011;10326;53.660;10.200;2022-10-16T01:06:23;3.63;;;3.33;;
20336;SDS011;10326;53.660;10.200;2022-10-16T01:09:07;3.70;;;3.33;;
20336;SDS011;10326;53.660;10.200;2022-10-16T01:11:44;4.20;;;3.58;;
20336;SDS011;10326;53.660;10.200;2022-10-16T01:14:22;3.72;;;3.30;;
20336;SDS011;10326;53.660;10.200;2022-10-16T01:17:05;4.53;;;3.53;;
20336;SDS011;10326;53.660;10.200;2022-10-16T01:19:49;3.97;;;3.20;;
20336;SDS011;10326;53.660;10.200;2022-10-16T01:22:32;3.75;;;3.42;;
20336;SDS011;10326;53.660;10.200;2022-10-16T01:25:08;4.20;;;3.35;;
20336;SDS011;10326;53.660;10.200;2022-10-16T01:27:44;3.85;;;3.53;;
20336;SDS011;10326;53.660;10.200;2022-10-16T01:30:15;3.80;;;3.45;;
20336;SDS011;10326;53.660;10.200;2022-10-16T01:32:48;3.92;;;3.05;;
20336;SDS011;10326;53.660;10.200;2022-10-16T01:35:21;4.40;;;3.13;;
20336;SDS011;10326;53.660;10.200;2022-10-16T01:37:52;4.63;;;3.08;;
20336;SDS011;10326;53.660;10.200;2022-10-16T01:40:25;3.15;;;2.85;;
20336;SDS011;10326;53.660;10.200;2022-10-16T01:42:55;3.25;;;2.90;;
20336;SDS011;10326;53.660;10.200;2022-10-16T01:45:26;3.45;;;3.00;;
20336;SDS011;10326;53.660;10.200;2022-10-16T01:47:56;3.40;;;3.10;;
20336;SDS011;10326;53.660;10.200;2022-10-16T01:50:25;3.13;;;2.83;;
20336;SDS011;10326;53.660;10.200;2022-10-16T01:52:54;4.60;;;3.25;;
20336;SDS011;10326;53.660;10.200;2022-10-16T01:55:24;3.20;;;2.90;;
20336;SDS011;10326;53.660;10.200;2022-10-16T01:57:59;4.18;;;3.50;;
20336;SDS011;10326;53.660;10.200;2022-10-16T02:00:27;3.85;;;2.72;;
20336;SDS011;10326;53.660;10.200;2022-10-16T02:02:57;3.35;;;3.05;;
20336;SDS011;10326;53.660;10.200;2022-10-16T02:05:28;3.53;;;3.22;;
20336;SDS011;10326;53.660;10.200;2022-10-16T02:07:59;3.65;;;3.30;;
20336;SDS011;10326;53.660;10.200;2022-10-16T02:10:26;3.28;;;2.95;;
20336;SDS011;10326;53.660;10.200;2022-10-16T02:12:56;3.20;;;2.83;;
20336;SDS011;10326;53.660;10.200;2022-10-16T02:15:30;2.80;;;2.50;;
20336;SDS011;10326;53.660;10.200;2022-10-16T02:17:57;4.97;;;3.20;;
20336;SDS011;10326;53.660;10.200;2022-10-16T02:20:25;3.70;;;2.70;;
20336;SDS011;10326;53.660;10.200;2022-10-16T02:22:56;4.88;;;3.22;;
20336;SDS011;10326;53.660;10.200;2022-10-16T02:25:29;2.90;;;2.60;;
20336;SDS011;10326;53.660;10.200;2022-10-16T02:28:00;3.22;;;2.88;;
20336;SDS011;10326;53.660;10.200;2022-10-16T02:30:34;4.28;;;3.15;;
20336;SDS011;10326;53.660;10.200;2022-10-16T02:33:07;3.00;;;2.72;;
20336;SDS011;10326;53.660;10.200;2022-10-16T02:35:38;3.42;;;2.50;;
20336;SDS011;10326;53.660;10.200;2022-10-16T02:38:07;3.50;;;3.15;;
20336;SDS011;10326;53.660;10.200;2022-10-16T02:40:35;2.50;;;2.30;;
20336;SDS011;10326;53.660;10.200;2022-10-16T02:43:04;3.28;;;2.60;;
20336;SDS011;10326;53.660;10.200;2022-10-16T02:45:31;3.97;;;2.83;;
20336;SDS011;10326;53.660;10.200;2022-10-16T02:47:59;3.65;;;2.80;;
20336;SDS011;10326;53.660;10.200;2022-10-16T02:50:26;4.40;;;2.70;;
20336;SDS011;10326;53.660;10.200;2022-10-16T02:52:53;3.00;;;2.50;;
20336;SDS011;10326;53.660;10.200;2022-10-16T02:55:20;3.53;;;2.78;;
20336;SDS011;10326;53.660;10.200;2022-10-16T02:57:47;3.28;;;2.60;;
20336;SDS011;10326;53.660;10.200;2022-10-16T03:00:16;3.20;;;2.72;;
20336;SDS011;10326;53.660;10.200;2022-10-16T03:02:44;8.23;;;2.70;;
20336;SDS011;10326;53.660;10.200;2022-10-16T03:05:11;2.60;;;2.40;;
20336;SDS011;10326;53.660;10.200;2022-10-16T03:07:39;2.83;;;2.42;;
20336;SDS011;10326;53.660;10.200;2022-10-16T03:10:07;4.45;;;2.78;;
20336;SDS011;10326;53.660;10.200;2022-10-16T03:12:35;5.10;;;2.83;;
20336;SDS011;10326;53.660;10.200;2022-10-16T03:15:02;2.80;;;2.50;;
20336;SDS011;10326;53.660;10.200;2022-10-16T03:17:32;4.10;;;2.40;;
20336;SDS011;10326;53.660;10.200;2022-10-16T03:19:59;3.50;;;2.40;;
20336;SDS011;10326;53.660;10.200;2022-10-16T03:22:27;2.55;;;2.10;;
20336;SDS011;10326;53.660;10.200;2022-10-16T03:24:54;3.42;;;2.35;;
20336;SDS011;10326;53.660;10.200;2022-10-16T03:27:21;2.40;;;2.20;;
20336;SDS011;10326;53.660;10.200;2022-10-16T03:29:48;4.00;;;2.20;;
20336;SDS011;10326;53.660;10.200;2022-10-16T03:32:15;3.13;;;2.00;;
20336;SDS011;10326;53.660;10.200;2022-10-16T03:34:45;2.25;;;1.98;;
20336;SDS011;10326;53.660;10.200;2022-10-16T03:37:13;2.45;;;2.10;;
20336;SDS011;10326;53.660;10.200;2022-10-16T03:39:40;2.17;;;1.95;;
20336;SDS011;10326;53.660;10.200;2022-10-16T03:42:07;3.03;;;2.15;;
20336;SDS011;10326;53.660;10.200;2022-10-16T03:44:34;3.03;;;1.85;;
20336;SDS011;10326;53.660;10.200;2022-10-16T03:47:01;2.85;;;1.92;;
20336;SDS011;10326;53.660;10.200;2022-10-16T03:49:28;2.17;;;1.73;;
20336;SDS011;10326;53.660;10.200;2022-10-16T03:51:57;3.67;;;2.00;;
20336;SDS011;10326;53.660;10.200;2022-10-16T03:54:24;3.47;;;1.83;;
20336;SDS011;10326;53.660;10.200;2022-10-16T03:56:51;2.38;;;1.92;;
20336;SDS011;10326;53.660;10.200;2022-10-16T03:59:18;2.95;;;1.80;;
20336;SDS011;10326;53.660;10.200;2022-10-16T04:01:45;3.17;;;1.80;;
20336;SDS011;10326;53.660;10.200;2022-10-16T04:04:12;2.25;;;1.83;;
20336;SDS011;10326;53.660;10.200;2022-10-16T04:06:39;2.63;;;1.70;;
20336;SDS011;10326;53.660;10.200;2022-10-16T04:09:08;1.90;;;1.75;;
20336;SDS011;10326;53.660;10.200;2022-10-16T04:11:35;2.60;;;2.00;;
20336;SDS011;10326;53.660;10.200;2022-10-16T04:14:02;2.55;;;1.92;;
20336;SDS011;10326;53.660;10.200;2022-10-16T04:16:29;2.72;;;1.80;;
20336;SDS011;10326;53.660;10.200;2022-10-16T04:18:56;5.28;;;2.25;;
20336;SDS011;10326;53.660;10.200;2022-10-16T04:21:24;1.90;;;1.77;;
20336;SDS011;10326;53.660;10.200;2022-10-16T04:23:51;2.03;;;1.75;;
20336;SDS011;10326;53.660;10.200;2022-10-16T04:26:19;2.60;;;1.67;;
20336;SDS011;10326;53.660;10.200;2022-10-16T04:28:47;2.38;;;1.75;;
20336;SDS011;10326;53.660;10.200;2022-10-16T04:31:14;1.92;;;1.38;;
20336;SDS011;10326;53.660;10.200;2022-10-16T04:33:42;3.08;;;1.88;;
20336;SDS011;10326;53.660;10.200;2022-10-16T04:36:09;3.60;;;1.92;;
20336;SDS011;10326;53.660;10.200;2022-10-16T04:38:36;2.88;;;1.73;;
20336;SDS011;10326;53.660;10.200;2022-10-16T04:41:04;2.05;;;1.88;;
20336;SDS011;10326;53.660;10.200;2022-10-16T04:43:34;1.90;;;1.75;;
20336;SDS011;10326;53.660;10.200;2022-10-16T04:46:01;3.05;;;1.55;;
20336;SDS011;10326;53.660;10.200;2022-10-16T04:48:29;2.50;;;1.73;;
20336;SDS011;10326;53.660;10.200;2022-10-16T04:50:57;1.83;;;1.60;;
20336;SDS011;10326;53.660;10.200;2022-10-16T04:53:24;2.15;;;1.33;;
20336;SDS011;10326;53.660;10.200;2022-10-16T04:55:51;2.30;;;1.60;;
20336;SDS011;10326;53.660;10.200;2022-10-16T04:58:18;2.70;;;1.80;;
20336;SDS011;10326;53.660;10.200;2022-10-16T05:00:47;3.22;;;1.80;;
20336;SDS011;10326;53.660;10.200;2022-10-16T05:03:14;4.95;;;1.70;;
20336;SDS011;10326;53.660;10.200;2022-10-16T05:05:42;2.33;;;1.70;;
20336;SDS011;10326;53.660;10.200;2022-10-16T05:08:10;3.42;;;1.95;;
20336;SDS011;10326;53.660;10.200;2022-10-16T05:10:37;2.33;;;1.85;;
20336;SDS011;10326;53.660;10.200;2022-10-16T05:13:05;3.45;;;1.65;;
20336;SDS011;10326;53.660;10.200;2022-10-16T05:15:32;2.55;;;1.65;;
20336;SDS011;10326;53.660;10.200;2022-10-16T05:18:01;2.55;;;1.67;;
20336;SDS011;10326;53.660;10.200;2022-10-16T05:20:28;2.30;;;1.80;;
20336;SDS011;10326;53.660;10.200;2022-10-16T05:22:55;3.25;;;1.90;;
20336;SDS011;10326;53.660;10.200;2022-10-16T05:25:22;2.85;;;2.05;;
20336;SDS011;10326;53.660;10.200;2022-10-16T05:27:50;2.00;;;1.80;;
20336;SDS011;10326;53.660;10.200;2022-10-16T05:30:17;3.15;;;1.88;;
20336;SDS011;10326;53.660;10.200;2022-10-16T05:32:48;3.03;;;1.80;;
20336;SDS011;10326;53.660;10.200;2022-10-16T05:35:17;5.03;;;1.83;;
20336;SDS011;10326;53.660;10.200;2022-10-16T05:37:45;3.28;;;1.63;;
20336;SDS011;10326;53.660;10.200;2022-10-16T05:40:13;2.60;;;1.63;;
20336;SDS011;10326;53.660;10.200;2022-10-16T05:42:41;2.85;;;1.90;;
20336;SDS011;10326;53.660;10.200;2022-10-16T05:45:09;2.42;;;1.85;;
20336;SDS011;10326;53.660;10.200;2022-10-16T05:47:37;3.97;;;2.00;;
20336;SDS011;10326;53.660;10.200;2022-10-16T05:50:05;2.67;;;1.90;;
20336;SDS011;10326;53.660;10.200;2022-10-16T05:52:34;2.28;;;2.08;;
20336;SDS011;10326;53.660;10.200;2022-10-16T05:55:02;6.60;;;2.28;;
20336;SDS011;10326;53.660;10.200;2022-10-16T05:57:30;2.35;;;2.00;;
20336;SDS011;10326;53.660;10.200;2022-10-16T05:59:57;3.22;;;2.08;;
20336;SDS011;10326;53.660;10.200;2022-10-16T06:02:24;3.97;;;2.25;;
20336;SDS011;10326;53.660;10.200;2022-10-16T06:04:51;3.53;;;2.15;;
20336;SDS011;10326;53.660;10.200;2022-10-16T06:07:19;4.13;;;2.00;;
20336;SDS011;10326;53.660;10.200;2022-10-16T06:09:49;2.50;;;2.10;;
20336;SDS011;10326;53.660;10.200;2022-10-16T06:12:16;3.20;;;1.95;;
20336;SDS011;10326;53.660;10.200;2022-10-16T06:14:44;2.88;;;2.10;;
20336;SDS011;10326;53.660;10.200;2022-10-16T06:17:12;3.95;;;1.70;;
20336;SDS011;10326;53.660;10.200;2022-10-16T06:19:39;2.15;;;1.80;;
20336;SDS011;10326;53.660;10.200;2022-10-16T06:22:07;3.28;;;1.90;;
20336;SDS011;10326;53.660;10.200;2022-10-16T06:24:34;3.40;;;1.75;;
20336;SDS011;10326;53.660;10.200;2022-10-16T06:27:03;2.55;;;1.92;;
20336;SDS011;10326;53.660;10.200;2022-10-16T06:29:31;3.33;;;2.13;;
20336;SDS011;10326;53.660;10.200;2022-10-16T06:31:58;3.33;;;2.13;;
20336;SDS011;10326;53.660;10.200;2022-10-16T06:34:25;2.55;;;1.98;;
20336;SDS011;10326;53.660;10.200;2022-10-16T06:36:52;3.88;;;2.15;;
20336;SDS011;10326;53.660;10.200;2022-10-16T06:39:19;4.22;;;2.00;;
20336;SDS011;10326;53.660;10.200;2022-10-16T06:41:46;3.53;;;2.30;;
20336;SDS011;10326;53.660;10.200;2022-10-16T06:44:15;2.42;;;1.90;;
20336;SDS011;10326;53.660;10.200;2022-10-16T06:46:43;3.58;;;2.03;;
20336;SDS011;10326;53.660;10.200;2022-10-16T06:49:10;3.28;;;2.00;;
20336;SDS011;10326;53.660;10.200;2022-10-16T06:51:37;2.60;;;2.00;;
20336;SDS011;10326;53.660;10.200;2022-10-16T06:54:06;2.75;;;2.10;;
20336;SDS011;10326;53.660;10.200;2022-10-16T06:56:33;3.63;;;1.90;;
20336;SDS011;10326;53.660;10.200;2022-10-16T06:59:01;2.60;;;2.20;;
20336;SDS011;10326;53.660;10.200;2022-10-16T07:01:30;3.92;;;2.35;;
20336;SDS011;10326;53.660;10.200;2022-10-16T07:03:58;2.42;;;1.92;;
20336;SDS011;10326;53.660;10.200;2022-10-16T07:06:26;4.05;;;2.42;;
20336;SDS011;10326;53.660;10.200;2022-10-16T07:08:58;2.67;;;2.05;;
20336;SDS011;10326;53.660;10.200;2022-10-16T07:11:28;4.35;;;2.03;;
20336;SDS011;10326;53.660;10.200;2022-10-16T07:13:55;4.82;;;2.42;;
20336;SDS011;10326;53.660;10.200;2022-10-16T07:16:23;2.90;;;2.20;;
20336;SDS011;10326;53.660;10.200;2022-10-16T07:18:54;3.00;;;2.40;;
20336;SDS011;10326;53.660;10.200;2022-10-16T07:21:24;3.03;;;2.38;;
20336;SDS011;10326;53.660;10.200;2022-10-16T07:23:54;2.80;;;2.58;;
20336;SDS011;10326;53.660;10.200;2022-10-16T07:26:23;3.63;;;2.45;;
20336;SDS011;10326;53.660;10.200;2022-10-16T07:28:52;4.38;;;2.35;;
20336;SDS011;10326;53.660;10.200;2022-10-16T07:31:19;4.25;;;2.40;;
20336;SDS011;10326;53.660;10.200;2022-10-16T07:33:48;3.38;;;2.50;;
20336;SDS011;10326;53.660;10.200;2022-10-16T07:36:17;2.97;;;2.30;;
20336;SDS011;10326;53.660;10.200;2022-10-16T07:38:46;3.22;;;2.55;;
20336;SDS011;10326;53.660;10.200;2022-10-16T07:41:14;3.10;;;2.75;;
20336;SDS011;10326;53.660;10.200;2022-10-16T07:43:45;4.93;;;2.70;;
20336;SDS011;10326;53.660;10.200;2022-10-16T07:46:13;3.97;;;2.70;;
20336;SDS011;10326;53.660;10.200;2022-10-16T07:48:41;3.75;;;2.78;;
20336;SDS011;10326;53.660;10.200;2022-10-16T07:51:12;3.53;;;2.70;;
20336;SDS011;10326;53.660;10.200;2022-10-16T07:53:42;3.65;;;2.80;;
20336;SDS011;10326;53.660;10.200;2022-10-16T07:56:10;3.88;;;2.45;;
20336;SDS011;10326;53.660;10.200;2022-10-16T07:58:38;3.22;;;2.50;;
20336;SDS011;10326;53.660;10.200;2022-10-16T08:01:05;3.75;;;2.78;;
20336;SDS011;10326;53.660;10.200;2022-10-16T08:03:34;4.05;;;2.63;;
20336;SDS011;10326;53.660;10.200;2022-10-16T08:06:02;3.42;;;2.80;;
20336;SDS011;10326;53.660;10.200;2022-10-16T08:08:30;4.43;;;2.45;;
20336;SDS011;10326;53.660;10.200;2022-10-16T08:10:59;3.03;;;2.40;;
20336;SDS011;10326;53.660;10.200;2022-10-16T08:13:28;2.45;;;2.25;;
20336;SDS011;10326;53.660;10.200;2022-10-16T08:15:56;3.88;;;2.58;;
20336;SDS011;10326;53.660;10.200;2022-10-16T08:18:23;3.45;;;2.38;;
20336;SDS011;10326;53.660;10.200;2022-10-16T08:20:54;3.42;;;2.63;;
20336;SDS011;10326;53.660;10.200;2022-10-16T08:23:23;2.45;;;2.25;;
20336;SDS011;10326;53.660;10.200;2022-10-16T08:25:51;2.42;;;2.20;;
20336;SDS011;10326;53.660;10.200;2022-10-16T08:28:20;3.58;;;2.40;;
20336;SDS011;10326;53.660;10.200;2022-10-16T08:30:47;3.25;;;2.10;;
20336;SDS011;10326;53.660;10.200;2022-10-16T08:33:14;3.78;;;2.50;;
20336;SDS011;10326;53.660;10.200;2022-10-16T08:35:41;2.58;;;2.20;;
20336;SDS011;10326;53.660;10.200;2022-10-16T08:38:08;3.92;;;2.20;;
20336;SDS011;10326;53.660;10.200;2022-10-16T08:40:36;3.88;;;2.05;;
20336;SDS011;10326;53.660;10.200;2022-10-16T08:43:08;4.22;;;2.10;;
20336;SDS011;10326;53.660;10.200;2022-10-16T08:46:06;2.95;;;1.95;;
20336;SDS011;10326;53.660;10.200;2022-10-16T08:48:50;2.38;;;1.85;;
20336;SDS011;10326;53.660;10.200;2022-10-16T08:51:20;2.30;;;1.80;;
20336;SDS011;10326;53.660;10.200;2022-10-16T08:53:52;2.55;;;2.20;;
20336;SDS011;10326;53.660;10.200;2022-10-16T08:56:22;2.72;;;1.90;;
20336;SDS011;10326;53.660;10.200;2022-10-16T08:58:51;4.38;;;2.17;;
20336;SDS011;10326;53.660;10.200;2022-10-16T09:01:20;3.97;;;2.25;;
20336;SDS011;10326;53.660;10.200;2022-10-16T09:03:53;3.25;;;2.05;;
20336;SDS011;10326;53.660;10.200;2022-10-16T09:07:01;2.42;;;1.83;;
20336;SDS011;10326;53.660;10.200;2022-10-16T09:09:44;1.98;;;1.73;;
20336;SDS011;10326;53.660;10.200;2022-10-16T09:12:24;2.38;;;1.77;;
20336;SDS011;10326;53.660;10.200;2022-10-16T09:15:05;3.60;;;1.77;;
20336;SDS011;10326;53.660;10.200;2022-10-16T09:17:46;3.08;;;1.60;;
20336;SDS011;10326;53.660;10.200;2022-10-16T09:20:25;4.68;;;2.08;;
20336;SDS011;10326;53.660;10.200;2022-10-16T09:23:13;3.53;;;2.08;;
20336;SDS011;10326;53.660;10.200;2022-10-16T09:25:43;4.35;;;1.83;;
20336;SDS011;10326;53.660;10.200;2022-10-16T09:28:14;2.55;;;1.70;;
20336;SDS011;10326;53.660;10.200;2022-10-16T09:30:44;3.00;;;1.88;;
20336;SDS011;10326;53.660;10.200;2022-10-16T09:33:13;3.17;;;1.63;;
20336;SDS011;10326;53.660;10.200;2022-10-16T09:35:43;2.35;;;1.42;;
20336;SDS011;10326;53.660;10.200;2022-10-16T09:38:20;2.10;;;1.50;;
20336;SDS011;10326;53.660;10.200;2022-10-16T09:40:53;4.47;;;1.55;;
20336;SDS011;10326;53.660;10.200;2022-10-16T09:43:22;4.25;;;1.88;;
20336;SDS011;10326;53.660;10.200;2022-10-16T09:45:57;1.88;;;1.20;;
20336;SDS011;10326;53.660;10.200;2022-10-16T09:48:26;2.45;;;1.70;;
20336;SDS011;10326;53.660;10.200;2022-10-16T09:50:58;3.33;;;1.50;;
20336;SDS011;10326;53.660;10.200;2022-10-16T09:53:39;2.28;;;1.50;;
20336;SDS011;10326;53.660;10.200;2022-10-16T09:56:09;1.63;;;1.38;;
20336;SDS011;10326;53.660;10.200;2022-10-16T09:58:41;2.58;;;1.35;;
20336;SDS011;10326;53.660;10.200;2022-10-16T10:01:14;2.58;;;1.40;;
20336;SDS011;10326;53.660;10.200;2022-10-16T10:03:41;1.73;;;1.40;;
20336;SDS011;10326;53.660;10.200;2022-10-16T10:06:17;2.33;;;1.25;;
20336;SDS011;10326;53.660;10.200;2022-10-16T10:08:56;3.05;;;1.42;;
20336;SDS011;10326;53.660;10.200;2022-10-16T10:11:42;2.75;;;1.33;;
20336;SDS011;10326;53.660;10.200;2022-10-16T10:14:20;2.78;;;1.33;;
20336;SDS011;10326;53.660;10.200;2022-10-16T10:17:07;2.20;;;1.50;;
20336;SDS011;10326;53.660;10.200;2022-10-16T10:19:39;4.05;;;1.40;;
20336;SDS011;10326;53.660;10.200;2022-10-16T10:22:19;2.38;;;1.83;;
20336;SDS011;10326;53.660;10.200;2022-10-16T10:24:56;1.75;;;1.40;;
20336;SDS011;10326;53.660;10.200;2022-10-16T10:27:39;3.38;;;1.40;;
20336;SDS011;10326;53.660;10.200;2022-10-16T10:30:20;3.00;;;1.30;;
20336;SDS011;10326;53.660;10.200;2022-10-16T10:32:55;3.42;;;1.75;;
20336;SDS011;10326;53.660;10.200;2022-10-16T10:35:39;2.45;;;1.58;;
20336;SDS011;10326;53.660;10.200;2022-10-16T10:38:16;4.30;;;1.70;;
20336;SDS011;10326;53.660;10.200;2022-10-16T10:40:58;2.15;;;1.75;;
20336;SDS011;10326;53.660;10.200;2022-10-16T10:43:42;4.22;;;1.77;;
20336;SDS011;10326;53.660;10.200;2022-10-16T10:46:25;3.20;;;1.65;;
20336;SDS011;10326;53.660;10.200;2022-10-16T10:49:10;4.90;;;1.63;;
20336;SDS011;10326;53.660;10.200;2022-10-16T10:51:52;4.10;;;1.67;;
20336;SDS011;10326;53.660;10.200;2022-10-16T10:54:32;3.55;;;1.50;;
20336;SDS011;10326;53.660;10.200;2022-10-16T10:57:09;3.35;;;1.48;;
20336;SDS011;10326;53.660;10.200;2022-10-16T10:59:49;2.28;;;1.30;;
20336;SDS011;10326;53.660;10.200;2022-10-16T11:02:32;2.50;;;1.45;;
20336;SDS011;10326;53.660;10.200;2022-10-16T11:05:26;4.15;;;1.45;;
20336;SDS011;10326;53.660;10.200;2022-10-16T11:08:06;3.97;;;1.30;;
20336;SDS011;10326;53.660;10.200;2022-10-16T11:10:45;3.88;;;1.23;;
20336;SDS011;10326;53.660;10.200;2022-10-16T11:13:21;1.88;;;1.30;;
20336;SDS011;10326;53.660;10.200;2022-10-16T11:15:57;2.92;;;1.42;;
20336;SDS011;10326;53.660;10.200;2022-10-16T11:18:30;3.72;;;1.75;;
20336;SDS011;10326;53.660;10.200;2022-10-16T11:21:10;2.22;;;1.20;;
20336;SDS011;10326;53.660;10.200;2022-10-16T11:23:41;2.53;;;1.10;;
20336;SDS011;10326;53.660;10.200;2022-10-16T11:26:16;3.38;;;1.10;;
20336;SDS011;10326;53.660;10.200;2022-10-16T11:28:48;3.20;;;1.50;;
20336;SDS011;10326;53.660;10.200;2022-10-16T11:31:17;2.33;;;1.30;;
20336;SDS011;10326;53.660;10.200;2022-10-16T11:33:54;2.42;;;1.10;;
20336;SDS011;10326;53.660;10.200;2022-10-16T11:36:33;2.50;;;1.00;;
20336;SDS011;10326;53.660;10.200;2022-10-16T11:39:08;3.47;;;1.20;;
20336;SDS011;10326;53.660;10.200;2022-10-16T11:41:46;2.72;;;1.33;;
20336;SDS011;10326;53.660;10.200;2022-10-16T11:44:20;2.65;;;1.08;;
20336;SDS011;10326;53.660;10.200;2022-10-16T11:47:13;3.00;;;0.90;;
20336;SDS011;10326;53.660;10.200;2022-10-16T11:50:01;1.85;;;0.90;;
20336;SDS011;10326;53.660;10.200;2022-10-16T11:52:41;1.65;;;1.10;;
20336;SDS011;10326;53.660;10.200;2022-10-16T11:55:20;3.15;;;1.20;;
20336;SDS011;10326;53.660;10.200;2022-10-16T11:57:51;2.88;;;0.88;;
20336;SDS011;10326;53.660;10.200;2022-10-16T12:00:21;2.45;;;0.93;;
20336;SDS011;10326;53.660;10.200;2022-10-16T12:02:57;3.30;;;0.98;;
20336;SDS011;10326;53.660;10.200;2022-10-16T12:05:33;1.75;;;1.20;;
20336;SDS011;10326;53.660;10.200;2022-10-16T12:08:17;3.88;;;1.00;;
20336;SDS011;10326;53.660;10.200;2022-10-16T12:10:45;1.85;;;1.20;;
20336;SDS011;10326;53.660;10.200;2022-10-16T12:16:19;2.55;;;1.08;;
20336;SDS011;10326;53.660;10.200;2022-10-16T12:18:49;2.95;;;0.93;;
20336;SDS011;10326;53.660;10.200;2022-10-16T12:21:30;3.28;;;1.60;;
20336;SDS011;10326;53.660;10.200;2022-10-16T12:24:00;2.35;;;1.10;;
20336;SDS011;10326;53.660;10.200;2022-10-16T12:26:31;3.50;;;1.20;;
20336;SDS011;10326;53.660;10.200;2022-10-16T12:29:13;3.00;;;0.98;;
20336;SDS011;10326;53.660;10.200;2022-10-16T12:31:49;2.75;;;1.33;;
20336;SDS011;10326;53.660;10.200;2022-10-16T12:34:20;1.95;;;1.00;;
20336;SDS011;10326;53.660;10.200;2022-10-16T12:36:52;4.95;;;1.30;;
20336;SDS011;10326;53.660;10.200;2022-10-16T12:39:22;4.45;;;1.20;;
20336;SDS011;10326;53.660;10.200;2022-10-16T12:42:00;2.90;;;1.20;;
20336;SDS011;10326;53.660;10.200;2022-10-16T12:44:31;3.67;;;1.10;;
20336;SDS011;10326;53.660;10.200;2022-10-16T12:47:00;4.53;;;1.00;;
20336;SDS011;10326;53.660;10.200;2022-10-16T12:49:32;2.90;;;1.20;;
20336;SDS011;10326;53.660;10.200;2022-10-16T12:52:22;2.47;;;1.20;;
20336;SDS011;10326;53.660;10.200;2022-10-16T12:54:57;2.97;;;1.23;;
20336;SDS011;10326;53.660;10.200;2022-10-16T12:57:35;2.03;;;1.20;;
20336;SDS011;10326;53.660;10.200;2022-10-16T13:00:15;3.78;;;1.30;;
20336;SDS011;10326;53.660;10.200;2022-10-16T13:02:56;3.88;;;1.25;;
20336;SDS011;10326;53.660;10.200;2022-10-16T13:06:14;2.33;;;0.98;;
20336;SDS011;10326;53.660;10.200;2022-10-16T13:08:59;3.10;;;1.67;;
20336;SDS011;10326;53.660;10.200;2022-10-16T13:11:59;2.95;;;1.10;;
20336;SDS011;10326;53.660;10.200;2022-10-16T13:15:01;3.25;;;1.10;;
20336;SDS011;10326;53.660;10.200;2022-10-16T13:18:06;3.97;;;1.10;;
20336;SDS011;10326;53.660;10.200;2022-10-16T13:20:44;2.22;;;1.00;;
20336;SDS011;10326;53.660;10.200;2022-10-16T13:23:27;3.17;;;1.20;;
20336;SDS011;10326;53.660;10.200;2022-10-16T13:26:06;2.55;;;1.08;;
20336;SDS011;10326;53.660;10.200;2022-10-16T13:28:47;2.70;;;1.20;;
20336;SDS011;10326;53.660;10.200;2022-10-16T13:31:15;2.05;;;0.90;;
20336;SDS011;10326;53.660;10.200;2022-10-16T13:33:47;3.53;;;1.30;;
20336;SDS011;10326;53.660;10.200;2022-10-16T13:36:20;4.20;;;1.30;;
20336;SDS011;10326;53.660;10.200;2022-10-16T13:38:58;3.17;;;0.90;;
20336;SDS011;10326;53.660;10.200;2022-10-16T13:41:33;3.47;;;1.20;;
20336;SDS011;10326;53.660;10.200;2022-10-16T13:44:02;2.83;;;0.88;;
20336;SDS011;10326;53.660;10.200;2022-10-16T13:46:29;3.17;;;1.10;;
20336;SDS011;10326;53.660;10.200;2022-10-16T13:48:59;2.13;;;0.90;;
20336;SDS011;10326;53.660;10.200;2022-10-16T13:51:29;3.58;;;1.17;;
20336;SDS011;10326;53.660;10.200;2022-10-16T13:53:58;3.72;;;1.20;;
20336;SDS011;10326;53.660;10.200;2022-10-16T13:56:26;2.97;;;1.10;;
20336;SDS011;10326;53.660;10.200;2022-10-16T13:58:58;3.38;;;1.30;;
20336;SDS011;10326;53.660;10.200;2022-10-16T14:01:28;3.92;;;1.30;;
20336;SDS011;10326;53.660;10.200;2022-10-16T14:04:01;3.63;;;1.05;;
20336;SDS011;10326;53.660;10.200;2022-10-16T14:06:31;4.03;;;1.10;;
20336;SDS011;10326;53.660;10.200;2022-10-16T14:08:59;3.83;;;1.10;;
20336;SDS011;10326;53.660;10.200;2022-10-16T14:11:32;1.58;;;0.82;;
20336;SDS011;10326;53.660;10.200;2022-10-16T14:14:01;3.42;;;1.42;;
20336;SDS011;10326;53.660;10.200;2022-10-16T14:16:30;3.63;;;1.33;;
20336;SDS011;10326;53.660;10.200;2022-10-16T14:18:59;4.18;;;1.35;;
20336;SDS011;10326;53.660;10.200;2022-10-16T14:21:31;3.10;;;1.10;;
20336;SDS011;10326;53.660;10.200;2022-10-16T14:23:58;4.35;;;1.25;;
20336;SDS011;10326;53.660;10.200;2022-10-16T14:26:41;3.53;;;1.20;;
20336;SDS011;10326;53.660;10.200;2022-10-16T14:29:11;2.53;;;1.10;;
20336;SDS011;10326;53.660;10.200;2022-10-16T14:31:42;2.50;;;0.80;;
20336;SDS011;10326;53.660;10.200;2022-10-16T14:34:27;2.60;;;1.20;;
20336;SDS011;10326;53.660;10.200;2022-10-16T14:36:58;2.72;;;1.13;;
20336;SDS011;10326;53.660;10.200;2022-10-16T14:39:32;4.80;;;1.02;;
20336;SDS011;10326;53.660;10.200;2022-10-16T14:42:00;3.75;;;1.20;;
20336;SDS011;10326;53.660;10.200;2022-10-16T14:44:28;3.47;;;1.38;;
20336;SDS011;10326;53.660;10.200;2022-10-16T14:47:05;2.97;;;1.33;;
20336;SDS011;10326;53.660;10.200;2022-10-16T14:49:35;2.22;;;1.10;;
20336;SDS011;10326;53.660;10.200;2022-10-16T14:52:04;4.15;;;1.10;;
20336;SDS011;10326;53.660;10.200;2022-10-16T14:54:36;3.72;;;1.05;;
20336;SDS011;10326;53.660;10.200;2022-10-16T14:57:03;3.40;;;1.15;;
20336;SDS011;10326;53.660;10.200;2022-10-16T14:59:32;3.92;;;1.10;;
20336;SDS011;10326;53.660;10.200;2022-10-16T15:02:12;2.60;;;1.00;;
20336;SDS011;10326;53.660;10.200;2022-10-16T15:04:47;3.47;;;1.10;;